sensor_id;sensor_type;location;lat;lon;timestamp;pressure;altitude;pressure_sealevel;temperature;humidity
34742;BME280;20968;42.696;23.360;2023-04-20T00:01:23;94882.72;;;12.34;66.21
34742;BME280;20968;42.696;23.360;2023-04-20T00:03:58;94890.28;;;12.39;66.42
34742;BME280;20968;42.696;23.360;2023-04-20T00:06:28;94888.72;;;12.32;66.55
34742;BME280;20968;42.696;23.360;2023-04-20T00:08:56;94888.25;;;12.39;65.86
34742;BME280;20968;42.696;23.360;2023-04-20T00:11:26;94891.25;;;12.36;66.10
34742;BME280;20968;42.696;23.360;2023-04-20T00:13:54;94884.47;;;12.37;65.19
34742;BME280;20968;42.696;23.360;2023-04-20T00:16:21;94884.47;;;12.37;65.12
34742;BME280;20968;42.696;23.360;2023-04-20T00:18:49;94864.66;;;12.38;65.57
34742;BME280;20968;42.696;23.360;2023-04-20T00:21:16;94879.72;;;12.42;65.66
34742;BME280;20968;42.696;23.360;2023-04-20T00:23:51;94873.19;;;12.40;66.13
34742;BME280;20968;42.696;23.360;2023-04-20T00:26:16;94873.19;;;12.40;65.59
34742;BME280;20968;42.696;23.360;2023-04-20T00:28:43;94865.66;;;12.35;65.20
34742;BME280;20968;42.696;23.360;2023-04-20T00:31:09;94880.66;;;12.23;64.74
34742;BME280;20968;42.696;23.360;2023-04-20T00:33:35;94869.34;;;12.16;64.88
34742;BME280;20968;42.696;23.360;2023-04-20T00:36:09;94869.56;;;12.07;64.45
34742;BME280;20968;42.696;23.360;2023-04-20T00:38:35;94871.81;;;12.03;65.47
34742;BME280;20968;42.696;23.360;2023-04-20T00:41:04;94864.13;;;11.76;65.81
34742;BME280;20968;42.696;23.360;2023-04-20T00:43:31;94872.66;;;11.78;65.48
34742;BME280;20968;42.696;23.360;2023-04-20T00:46:17;94877.41;;;11.77;66.55
34742;BME280;20968;42.696;23.360;2023-04-20T00:48:43;94872.63;;;11.72;65.69
34742;BME280;20968;42.696;23.360;2023-04-20T00:51:29;94874.88;;;11.68;66.27
34742;BME280;20968;42.696;23.360;2023-04-20T00:54:11;94864.75;;;11.55;66.72
34742;BME280;20968;42.696;23.360;2023-04-20T00:57:08;94870.25;;;11.55;66.13
34742;BME280;20968;42.696;23.360;2023-04-20T00:59:45;94865.91;;;11.43;66.88
34742;BME280;20968;42.696;23.360;2023-04-20T01:02:11;94869.38;;;11.38;67.10
34742;BME280;20968;42.696;23.360;2023-04-20T01:04:38;94866.06;;;11.34;66.87
34742;BME280;20968;42.696;23.360;2023-04-20T01:07:04;94870.16;;;11.44;67.00
34742;BME280;20968;42.696;23.360;2023-04-20T01:09:47;94849.72;;;11.25;67.65
34742;BME280;20968;42.696;23.360;2023-04-20T01:12:14;94863.03;;;11.32;68.03
34742;BME280;20968;42.696;23.360;2023-04-20T01:15:17;94863.88;;;11.38;67.87
34742;BME280;20968;42.696;23.360;2023-04-20T01:17:56;94862.75;;;11.24;68.39
34742;BME280;20968;42.696;23.360;2023-04-20T01:20:32;94866.25;;;11.25;67.72
34742;BME280;20968;42.696;23.360;2023-04-20T01:23:03;94868.56;;;11.32;67.58
34742;BME280;20968;42.696;23.360;2023-04-20T01:25:30;94855.50;;;11.27;67.66
34742;BME280;20968;42.696;23.360;2023-04-20T01:27:58;94866.63;;;11.38;67.68
34742;BME280;20968;42.696;23.360;2023-04-20T01:30:31;94848.69;;;11.22;67.95
34742;BME280;20968;42.696;23.360;2023-04-20T01:32:56;94849.94;;;11.16;67.99
34742;BME280;20968;42.696;23.360;2023-04-20T01:35:33;94861.25;;;11.23;67.94
34742;BME280;20968;42.696;23.360;2023-04-20T01:37:59;94849.16;;;11.15;67.63
34742;BME280;20968;42.696;23.360;2023-04-20T01:40:41;94861.25;;;11.23;67.53
34742;BME280;20968;42.696;23.360;2023-04-20T01:43:10;94844.19;;;11.19;68.08
34742;BME280;20968;42.696;23.360;2023-04-20T01:45:36;94859.50;;;11.26;67.36
34742;BME280;20968;42.696;23.360;2023-04-20T01:48:06;94843.69;;;11.21;67.72
34742;BME280;20968;42.696;23.360;2023-04-20T01:50:37;94844.97;;;11.25;67.85
34742;BME280;20968;42.696;23.360;2023-04-20T01:53:05;94836.47;;;11.29;67.13
34742;BME280;20968;42.696;23.360;2023-04-20T01:55:54;94841.00;;;11.32;67.72
34742;BME280;20968;42.696;23.360;2023-04-20T01:58:22;94847.28;;;11.32;67.79
34742;BME280;20968;42.696;23.360;2023-04-20T02:00:52;94846.00;;;11.28;67.30
34742;BME280;20968;42.696;23.360;2023-04-20T02:03:20;94843.22;;;11.28;66.69
34742;BME280;20968;42.696;23.360;2023-04-20T02:05:47;94837.19;;;11.24;67.08
34742;BME280;20968;42.696;23.360;2023-04-20T02:08:15;94836.38;;;11.18;67.84
34742;BME280;20968;42.696;23.360;2023-04-20T02:11:08;94843.97;;;11.23;67.11
34742;BME280;20968;42.696;23.360;2023-04-20T02:13:38;94836.16;;;11.16;66.85
34742;BME280;20968;42.696;23.360;2023-04-20T02:16:16;94835.31;;;11.10;67.31
34742;BME280;20968;42.696;23.360;2023-04-20T02:18:45;94841.69;;;11.21;67.67
34742;BME280;20968;42.696;23.360;2023-04-20T02:21:12;94844.41;;;11.16;66.80
34742;BME280;20968;42.696;23.360;2023-04-20T02:23:39;94850.38;;;11.14;67.54
34742;BME280;20968;42.696;23.360;2023-04-20T02:26:05;94856.63;;;11.09;68.23
34742;BME280;20968;42.696;23.360;2023-04-20T02:28:34;94849.94;;;11.16;67.27
34742;BME280;20968;42.696;23.360;2023-04-20T02:31:05;94849.44;;;11.17;67.27
34742;BME280;20968;42.696;23.360;2023-04-20T02:33:33;94849.72;;;11.25;67.55
34742;BME280;20968;42.696;23.360;2023-04-20T02:35:59;94845.19;;;11.22;67.03
34742;BME280;20968;42.696;23.360;2023-04-20T02:38:27;94847.97;;;11.22;67.65
34742;BME280;20968;42.696;23.360;2023-04-20T02:40:53;94839.41;;;11.20;66.87
34742;BME280;20968;42.696;23.360;2023-04-20T02:43:34;94856.00;;;11.25;66.65
34742;BME280;20968;42.696;23.360;2023-04-20T02:46:05;94843.63;;;11.15;66.87
34742;BME280;20968;42.696;23.360;2023-04-20T02:48:50;94841.66;;;11.16;67.33
34742;BME280;20968;42.696;23.360;2023-04-20T02:51:21;94853.19;;;11.20;66.85
34742;BME280;20968;42.696;23.360;2023-04-20T02:53:51;94841.09;;;11.12;66.69
34742;BME280;20968;42.696;23.360;2023-04-20T02:56:17;94845.91;;;11.17;66.94
34742;BME280;20968;42.696;23.360;2023-04-20T02:58:54;94833.13;;;11.14;66.51
34742;BME280;20968;42.696;23.360;2023-04-20T03:01:20;94846.16;;;11.19;66.75
34742;BME280;20968;42.696;23.360;2023-04-20T03:03:48;94850.22;;;11.23;66.80
34742;BME280;20968;42.696;23.360;2023-04-20T03:06:14;94838.97;;;11.27;66.68
34742;BME280;20968;42.696;23.360;2023-04-20T03:08:41;94852.78;;;11.32;66.85
34742;BME280;20968;42.696;23.360;2023-04-20T03:11:07;94831.25;;;11.31;66.37
34742;BME280;20968;42.696;23.360;2023-04-20T03:13:42;94849.63;;;11.45;66.52
34742;BME280;20968;42.696;23.360;2023-04-20T03:16:13;94848.38;;;11.46;65.87
34742;BME280;20968;42.696;23.360;2023-04-20T03:18:40;94838.16;;;11.52;66.29
34742;BME280;20968;42.696;23.360;2023-04-20T03:21:06;94846.25;;;11.61;65.33
34742;BME280;20968;42.696;23.360;2023-04-20T03:23:34;94843.03;;;11.67;65.57
34742;BME280;20968;42.696;23.360;2023-04-20T03:26:00;94851.53;;;11.69;65.36
34742;BME280;20968;42.696;23.360;2023-04-20T03:28:26;94852.09;;;11.73;65.00
34742;BME280;20968;42.696;23.360;2023-04-20T03:30:52;94855.34;;;11.77;65.46
34742;BME280;20968;42.696;23.360;2023-04-20T03:33:20;94849.28;;;11.68;64.66
34742;BME280;20968;42.696;23.360;2023-04-20T03:35:49;94848.78;;;11.69;65.84
34742;BME280;20968;42.696;23.360;2023-04-20T03:38:15;94842.75;;;11.65;65.33
34742;BME280;20968;42.696;23.360;2023-04-20T03:40:41;94846.47;;;11.57;65.27
34742;BME280;20968;42.696;23.360;2023-04-20T03:43:12;94843.78;;;11.68;65.67
34742;BME280;20968;42.696;23.360;2023-04-20T03:45:45;94847.25;;;11.63;65.73
34742;BME280;20968;42.696;23.360;2023-04-20T03:48:11;94850.06;;;11.68;66.01
34742;BME280;20968;42.696;23.360;2023-04-20T03:50:38;94852.81;;;11.68;66.16
34742;BME280;20968;42.696;23.360;2023-04-20T03:53:04;94852.81;;;11.74;66.17
34742;BME280;20968;42.696;23.360;2023-04-20T03:55:30;94848.59;;;11.78;65.59
34742;BME280;20968;42.696;23.360;2023-04-20T03:57:56;94847.06;;;11.72;65.62
34742;BME280;20968;42.696;23.360;2023-04-20T04:00:42;94856.84;;;11.73;65.38
34742;BME280;20968;42.696;23.360;2023-04-20T04:03:16;94862.41;;;11.84;64.88
34742;BME280;20968;42.696;23.360;2023-04-20T04:05:47;94861.44;;;11.87;65.48
34742;BME280;20968;42.696;23.360;2023-04-20T04:08:17;94853.88;;;11.82;64.75
34742;BME280;20968;42.696;23.360;2023-04-20T04:10:42;94860.88;;;11.77;64.84
34742;BME280;20968;42.696;23.360;2023-04-20T04:13:09;94860.44;;;11.90;68.35
34742;BME280;20968;42.696;23.360;2023-04-20T04:15:35;94849.44;;;11.95;67.96
34742;BME280;20968;42.696;23.360;2023-04-20T04:18:01;94871.09;;;12.13;67.45
34742;BME280;20968;42.696;23.360;2023-04-20T04:20:26;94860.13;;;12.35;67.15
34742;BME280;20968;42.696;23.360;2023-04-20T04:22:51;94863.19;;;12.48;65.56
34742;BME280;20968;42.696;23.360;2023-04-20T04:25:17;94866.47;;;12.52;63.89
34742;BME280;20968;42.696;23.360;2023-04-20T04:27:42;94870.00;;;12.58;63.03
34742;BME280;20968;42.696;23.360;2023-04-20T04:30:11;94862.47;;;12.64;63.75
34742;BME280;20968;42.696;23.360;2023-04-20T04:32:36;94860.00;;;12.71;63.21
34742;BME280;20968;42.696;23.360;2023-04-20T04:35:06;94869.75;;;12.72;62.24
34742;BME280;20968;42.696;23.360;2023-04-20T04:37:32;94877.78;;;12.65;62.26
34742;BME280;20968;42.696;23.360;2023-04-20T04:40:01;94873.97;;;12.51;62.72
34742;BME280;20968;42.696;23.360;2023-04-20T04:42:27;94868.19;;;12.44;62.47
34742;BME280;20968;42.696;23.360;2023-04-20T04:44:54;94869.19;;;12.41;62.27
34742;BME280;20968;42.696;23.360;2023-04-20T04:47:21;94868.38;;;12.24;63.35
34742;BME280;20968;42.696;23.360;2023-04-20T04:49:48;94885.16;;;12.21;63.39
34742;BME280;20968;42.696;23.360;2023-04-20T04:52:13;94872.34;;;12.12;63.25
34742;BME280;20968;42.696;23.360;2023-04-20T04:54:39;94878.84;;;12.09;64.06
34742;BME280;20968;42.696;23.360;2023-04-20T04:57:05;94879.63;;;12.10;64.39
34742;BME280;20968;42.696;23.360;2023-04-20T04:59:36;94871.03;;;12.02;63.80
34742;BME280;20968;42.696;23.360;2023-04-20T05:02:03;94887.13;;;12.09;64.76
34742;BME280;20968;42.696;23.360;2023-04-20T05:04:30;94878.03;;;11.98;63.55
34742;BME280;20968;42.696;23.360;2023-04-20T05:06:55;94890.06;;;12.00;64.57
34742;BME280;20968;42.696;23.360;2023-04-20T05:09:22;94892.25;;;11.85;64.06
34742;BME280;20968;42.696;23.360;2023-04-20T05:11:50;94885.72;;;11.83;64.34
34742;BME280;20968;42.696;23.360;2023-04-20T05:14:23;94884.44;;;11.78;65.34
34742;BME280;20968;42.696;23.360;2023-04-20T05:16:54;94881.72;;;11.84;65.27
34742;BME280;20968;42.696;23.360;2023-04-20T05:19:20;94890.00;;;11.84;64.73
34742;BME280;20968;42.696;23.360;2023-04-20T05:21:54;94885.97;;;11.79;65.23
34742;BME280;20968;42.696;23.360;2023-04-20T05:24:20;94884.75;;;11.86;64.58
34742;BME280;20968;42.696;23.360;2023-04-20T05:26:45;94888.00;;;11.84;65.62
34742;BME280;20968;42.696;23.360;2023-04-20T05:29:18;94898.13;;;11.98;65.30
34742;BME280;20968;42.696;23.360;2023-04-20T05:31:44;94898.59;;;11.97;64.90
34742;BME280;20968;42.696;23.360;2023-04-20T05:34:10;94890.03;;;11.89;64.44
34742;BME280;20968;42.696;23.360;2023-04-20T05:36:45;94894.56;;;11.92;64.94
34742;BME280;20968;42.696;23.360;2023-04-20T05:39:12;94897.84;;;11.96;65.30
34742;BME280;20968;42.696;23.360;2023-04-20T05:41:42;94892.84;;;12.00;65.15
34742;BME280;20968;42.696;23.360;2023-04-20T05:44:09;94898.63;;;12.02;64.96
34742;BME280;20968;42.696;23.360;2023-04-20T05:46:35;94903.69;;;12.09;64.27
34742;BME280;20968;42.696;23.360;2023-04-20T05:49:06;94895.66;;;12.11;64.94
34742;BME280;20968;42.696;23.360;2023-04-20T05:51:32;94897.31;;;11.92;64.90
34742;BME280;20968;42.696;23.360;2023-04-20T05:54:02;94906.41;;;12.04;64.91
34742;BME280;20968;42.696;23.360;2023-04-20T05:56:37;94904.16;;;12.02;64.21
34742;BME280;20968;42.696;23.360;2023-04-20T05:59:03;94903.16;;;12.05;65.08
34742;BME280;20968;42.696;23.360;2023-04-20T06:01:39;94890.13;;;12.06;64.90
34742;BME280;20968;42.696;23.360;2023-04-20T06:04:11;94907.94;;;12.10;64.00
34742;BME280;20968;42.696;23.360;2023-04-20T06:06:37;94898.47;;;12.17;64.62
34742;BME280;20968;42.696;23.360;2023-04-20T06:09:03;94905.25;;;12.21;65.17
34742;BME280;20968;42.696;23.360;2023-04-20T06:11:32;94903.25;;;12.22;64.68
34742;BME280;20968;42.696;23.360;2023-04-20T06:14:06;94906.28;;;12.24;65.34
34742;BME280;20968;42.696;23.360;2023-04-20T06:16:31;94905.50;;;12.23;65.82
34742;BME280;20968;42.696;23.360;2023-04-20T06:19:12;94891.69;;;12.23;66.22
34742;BME280;20968;42.696;23.360;2023-04-20T06:21:45;94895.22;;;12.24;65.97
34742;BME280;20968;42.696;23.360;2023-04-20T06:24:37;94892.03;;;12.36;65.87
34742;BME280;20968;42.696;23.360;2023-04-20T06:27:03;94895.75;;;12.33;66.36
34742;BME280;20968;42.696;23.360;2023-04-20T06:29:29;94903.84;;;12.42;65.90
34742;BME280;20968;42.696;23.360;2023-04-20T06:31:59;94916.13;;;12.41;65.31
34742;BME280;20968;42.696;23.360;2023-04-20T06:34:36;94903.53;;;12.35;66.02
34742;BME280;20968;42.696;23.360;2023-04-20T06:37:05;94906.31;;;12.29;65.83
34742;BME280;20968;42.696;23.360;2023-04-20T06:39:34;94901.28;;;12.33;69.59
34742;BME280;20968;42.696;23.360;2023-04-20T06:42:00;94905.59;;;12.40;65.47
34742;BME280;20968;42.696;23.360;2023-04-20T06:44:28;94917.88;;;12.39;66.18
34742;BME280;20968;42.696;23.360;2023-04-20T06:46:53;94919.63;;;12.36;66.46
34742;BME280;20968;42.696;23.360;2023-04-20T06:49:23;94909.25;;;12.20;65.91
34742;BME280;20968;42.696;23.360;2023-04-20T06:51:50;94918.06;;;12.24;66.47
34742;BME280;20968;42.696;23.360;2023-04-20T06:54:16;94923.84;;;12.26;67.67
34742;BME280;20968;42.696;23.360;2023-04-20T06:56:41;94921.38;;;12.34;67.68
34742;BME280;20968;42.696;23.360;2023-04-20T06:59:11;94927.63;;;12.29;67.44
34742;BME280;20968;42.696;23.360;2023-04-20T07:01:49;94924.84;;;12.29;68.38
34742;BME280;20968;42.696;23.360;2023-04-20T07:04:19;94928.63;;;12.26;67.93
34742;BME280;20968;42.696;23.360;2023-04-20T07:06:44;94929.56;;;12.17;67.45
34742;BME280;20968;42.696;23.360;2023-04-20T07:09:11;94925.53;;;12.07;68.08
34742;BME280;20968;42.696;23.360;2023-04-20T07:11:51;94937.88;;;12.23;68.40
34742;BME280;20968;42.696;23.360;2023-04-20T07:14:29;94938.16;;;12.25;68.92
34742;BME280;20968;42.696;23.360;2023-04-20T07:16:55;94936.13;;;12.25;68.68
34742;BME280;20968;42.696;23.360;2023-04-20T07:19:21;94934.44;;;12.39;69.14
34742;BME280;20968;42.696;23.360;2023-04-20T07:21:46;94937.75;;;12.48;68.20
34742;BME280;20968;42.696;23.360;2023-04-20T07:24:13;94934.25;;;12.53;67.69
34742;BME280;20968;42.696;23.360;2023-04-20T07:26:38;94934.53;;;12.60;68.25
34742;BME280;20968;42.696;23.360;2023-04-20T07:29:05;94927.50;;;12.59;68.48
34742;BME280;20968;42.696;23.360;2023-04-20T07:31:32;94941.09;;;12.68;67.44
34742;BME280;20968;42.696;23.360;2023-04-20T07:33:57;94937.09;;;12.75;67.11
34742;BME280;20968;42.696;23.360;2023-04-20T07:36:28;94934.34;;;12.75;66.88
34742;BME280;20968;42.696;23.360;2023-04-20T07:38:56;94937.59;;;12.73;66.86
34742;BME280;20968;42.696;23.360;2023-04-20T07:41:22;94919.00;;;12.74;66.64
34742;BME280;20968;42.696;23.360;2023-04-20T07:43:52;94932.09;;;12.84;67.23
34742;BME280;20968;42.696;23.360;2023-04-20T07:46:21;94930.91;;;13.02;66.55
34742;BME280;20968;42.696;23.360;2023-04-20T07:48:48;94927.41;;;13.12;65.41
34742;BME280;20968;42.696;23.360;2023-04-20T07:51:13;94935.47;;;13.21;65.84
34742;BME280;20968;42.696;23.360;2023-04-20T07:53:41;94923.16;;;13.22;64.52
34742;BME280;20968;42.696;23.360;2023-04-20T07:56:06;94935.75;;;13.28;64.39
34742;BME280;20968;42.696;23.360;2023-04-20T07:58:33;94924.41;;;13.37;64.57
34742;BME280;20968;42.696;23.360;2023-04-20T08:01:04;94924.16;;;13.68;64.47
34742;BME280;20968;42.696;23.360;2023-04-20T08:03:30;94925.66;;;13.69;62.55
34742;BME280;20968;42.696;23.360;2023-04-20T08:05:58;94927.19;;;13.81;63.22
34742;BME280;20968;42.696;23.360;2023-04-20T08:08:24;94936.75;;;13.86;62.52
34742;BME280;20968;42.696;23.360;2023-04-20T08:10:50;94940.47;;;14.04;60.44
34742;BME280;20968;42.696;23.360;2023-04-20T08:13:15;94928.63;;;14.09;59.93
34742;BME280;20968;42.696;23.360;2023-04-20T08:15:42;94940.25;;;13.86;60.39
34742;BME280;20968;42.696;23.360;2023-04-20T08:18:08;94928.69;;;13.71;60.50
34742;BME280;20968;42.696;23.360;2023-04-20T08:20:40;94944.28;;;13.58;60.90
34742;BME280;20968;42.696;23.360;2023-04-20T08:23:12;94940.50;;;13.50;60.80
34742;BME280;20968;42.696;23.360;2023-04-20T08:25:38;94936.50;;;13.51;62.13
34742;BME280;20968;42.696;23.360;2023-04-20T08:28:05;94936.47;;;13.73;61.10
34742;BME280;20968;42.696;23.360;2023-04-20T08:30:38;94929.19;;;13.64;61.93
34742;BME280;20968;42.696;23.360;2023-04-20T08:33:23;94935.75;;;13.67;62.08
34742;BME280;20968;42.696;23.360;2023-04-20T08:35:51;94937.25;;;13.57;61.01
34742;BME280;20968;42.696;23.360;2023-04-20T08:38:17;94941.25;;;13.61;60.86
34742;BME280;20968;42.696;23.360;2023-04-20T08:40:42;94923.91;;;13.72;61.70
34742;BME280;20968;42.696;23.360;2023-04-20T08:43:08;94942.25;;;13.91;59.87
34742;BME280;20968;42.696;23.360;2023-04-20T08:45:34;94946.28;;;14.01;58.71
34742;BME280;20968;42.696;23.360;2023-04-20T08:48:06;94939.19;;;14.33;58.86
34742;BME280;20968;42.696;23.360;2023-04-20T08:50:35;94938.66;;;14.40;57.84
34742;BME280;20968;42.696;23.360;2023-04-20T08:53:01;94939.41;;;14.40;57.99
34742;BME280;20968;42.696;23.360;2023-04-20T08:55:27;94945.47;;;14.33;58.41
34742;BME280;20968;42.696;23.360;2023-04-20T08:57:54;94926.41;;;14.13;58.99
34742;BME280;20968;42.696;23.360;2023-04-20T09:00:21;94935.22;;;14.12;58.92
34742;BME280;20968;42.696;23.360;2023-04-20T09:02:51;94931.44;;;13.88;58.66
34742;BME280;20968;42.696;23.360;2023-04-20T09:05:25;94926.19;;;13.62;58.92
34742;BME280;20968;42.696;23.360;2023-04-20T09:07:57;94937.75;;;13.55;59.59
34742;BME280;20968;42.696;23.360;2023-04-20T09:10:39;94930.97;;;13.62;59.70
34742;BME280;20968;42.696;23.360;2023-04-20T09:13:26;94936.75;;;13.75;60.74
34742;BME280;20968;42.696;23.360;2023-04-20T09:16:19;94928.94;;;13.68;59.97
34742;BME280;20968;42.696;23.360;2023-04-20T09:18:54;94936.75;;;13.80;59.98
34742;BME280;20968;42.696;23.360;2023-04-20T09:21:20;94923.38;;;13.84;60.26
34742;BME280;20968;42.696;23.360;2023-04-20T09:24:06;94926.41;;;13.92;59.13
34742;BME280;20968;42.696;23.360;2023-04-20T09:26:34;94929.66;;;14.01;59.29
34742;BME280;20968;42.696;23.360;2023-04-20T09:29:14;94928.16;;;14.11;59.13
34742;BME280;20968;42.696;23.360;2023-04-20T09:31:42;94934.44;;;14.17;58.57
34742;BME280;20968;42.696;23.360;2023-04-20T09:34:08;94922.31;;;14.25;58.84
34742;BME280;20968;42.696;23.360;2023-04-20T09:36:41;94924.25;;;14.52;58.86
34742;BME280;20968;42.696;23.360;2023-04-20T09:39:33;94916.41;;;14.56;58.61
34742;BME280;20968;42.696;23.360;2023-04-20T09:42:03;94913.22;;;14.92;57.61
34742;BME280;20968;42.696;23.360;2023-04-20T09:44:30;94917.94;;;15.08;56.35
34742;BME280;20968;42.696;23.360;2023-04-20T09:46:58;94923.81;;;15.34;55.85
34742;BME280;20968;42.696;23.360;2023-04-20T09:49:24;94911.25;;;15.62;55.86
34742;BME280;20968;42.696;23.360;2023-04-20T09:51:49;94910.41;;;15.73;55.69
34742;BME280;20968;42.696;23.360;2023-04-20T09:54:16;94926.66;;;15.93;54.27
34742;BME280;20968;42.696;23.360;2023-04-20T09:56:42;94920.34;;;15.63;54.71
34742;BME280;20968;42.696;23.360;2023-04-20T09:59:08;94918.03;;;15.67;54.52
34742;BME280;20968;42.696;23.360;2023-04-20T10:01:34;94903.00;;;15.81;54.18
34742;BME280;20968;42.696;23.360;2023-04-20T10:04:01;94904.28;;;15.80;54.65
34742;BME280;20968;42.696;23.360;2023-04-20T10:06:32;94901.50;;;15.80;53.52
34742;BME280;20968;42.696;23.360;2023-04-20T10:09:00;94901.03;;;15.76;53.25
34742;BME280;20968;42.696;23.360;2023-04-20T10:11:37;94901.13;;;15.94;52.86
34742;BME280;20968;42.696;23.360;2023-04-20T10:14:19;94887.88;;;16.06;53.71
34742;BME280;20968;42.696;23.360;2023-04-20T10:16:45;94901.19;;;16.13;52.26
34742;BME280;20968;42.696;23.360;2023-04-20T10:19:22;94884.84;;;16.28;52.03
34742;BME280;20968;42.696;23.360;2023-04-20T10:21:49;94893.91;;;16.34;52.29
34742;BME280;20968;42.696;23.360;2023-04-20T10:24:27;94890.41;;;16.33;52.41
34742;BME280;20968;42.696;23.360;2023-04-20T10:26:53;94901.44;;;16.15;51.83
34742;BME280;20968;42.696;23.360;2023-04-20T10:29:27;94894.25;;;16.01;51.25
34742;BME280;20968;42.696;23.360;2023-04-20T10:31:53;94892.75;;;16.00;52.21
34742;BME280;20968;42.696;23.360;2023-04-20T10:34:33;94887.06;;;16.11;52.58
34742;BME280;20968;42.696;23.360;2023-04-20T10:37:11;94891.06;;;16.15;52.17
34742;BME280;20968;42.696;23.360;2023-04-20T10:39:44;94876.59;;;15.98;52.21
34742;BME280;20968;42.696;23.360;2023-04-20T10:42:11;94871.88;;;15.88;52.78
34742;BME280;20968;42.696;23.360;2023-04-20T10:44:47;94883.94;;;16.20;52.26
34742;BME280;20968;42.696;23.360;2023-04-20T10:47:13;94876.78;;;16.30;51.19
34742;BME280;20968;42.696;23.360;2023-04-20T10:49:39;94886.16;;;16.69;50.12
34742;BME280;20968;42.696;23.360;2023-04-20T10:52:06;94885.88;;;16.91;50.15
34742;BME280;20968;42.696;23.360;2023-04-20T10:54:39;94894.38;;;17.16;50.58
34742;BME280;20968;42.696;23.360;2023-04-20T10:57:05;94883.59;;;17.26;49.94
34742;BME280;20968;42.696;23.360;2023-04-20T10:59:31;94900.16;;;17.18;50.05
34742;BME280;20968;42.696;23.360;2023-04-20T11:01:59;94887.38;;;17.28;48.64
34742;BME280;20968;42.696;23.360;2023-04-20T11:04:32;94882.00;;;17.49;49.08
34742;BME280;20968;42.696;23.360;2023-04-20T11:07:05;94866.81;;;17.63;49.55
34742;BME280;20968;42.696;23.360;2023-04-20T11:09:34;94878.34;;;17.72;48.51
34742;BME280;20968;42.696;23.360;2023-04-20T11:14:29;94867.97;;;17.23;48.54
34742;BME280;20968;42.696;23.360;2023-04-20T11:16:55;94874.97;;;17.11;48.83
34742;BME280;20968;42.696;23.360;2023-04-20T11:19:26;94867.28;;;16.99;48.64
34742;BME280;20968;42.696;23.360;2023-04-20T11:21:52;94860.63;;;17.07;48.38
34742;BME280;20968;42.696;23.360;2023-04-20T11:24:18;94871.78;;;17.20;47.89
34742;BME280;20968;42.696;23.360;2023-04-20T11:26:45;94868.16;;;17.25;48.04
34742;BME280;20968;42.696;23.360;2023-04-20T11:29:24;94864.06;;;17.31;47.35
34742;BME280;20968;42.696;23.360;2023-04-20T11:31:50;94866.88;;;17.26;48.18
34742;BME280;20968;42.696;23.360;2023-04-20T11:34:16;94855.78;;;17.08;47.76
34742;BME280;20968;42.696;23.360;2023-04-20T11:36:42;94868.50;;;16.85;49.05
34742;BME280;20968;42.696;23.360;2023-04-20T11:39:08;94861.97;;;16.82;49.08
34742;BME280;20968;42.696;23.360;2023-04-20T11:41:38;94861.88;;;17.06;49.02
34742;BME280;20968;42.696;23.360;2023-04-20T11:44:04;94858.56;;;17.08;48.36
34742;BME280;20968;42.696;23.360;2023-04-20T11:47:03;94844.03;;;17.14;48.07
34742;BME280;20968;42.696;23.360;2023-04-20T11:49:32;94850.19;;;17.26;48.03
34742;BME280;20968;42.696;23.360;2023-04-20T11:51:57;94857.88;;;17.20;47.74
34742;BME280;20968;42.696;23.360;2023-04-20T11:54:23;94848.63;;;17.12;47.78
34742;BME280;20968;42.696;23.360;2023-04-20T11:56:49;94854.13;;;17.17;48.20
34742;BME280;20968;42.696;23.360;2023-04-20T11:59:15;94848.69;;;17.25;49.26
34742;BME280;20968;42.696;23.360;2023-04-20T12:01:44;94853.97;;;17.28;48.53
34742;BME280;20968;42.696;23.360;2023-04-20T12:04:09;94852.16;;;17.13;48.68
34742;BME280;20968;42.696;23.360;2023-04-20T12:06:35;94841.53;;;16.80;49.38
34742;BME280;20968;42.696;23.360;2023-04-20T12:09:00;94843.53;;;16.79;50.27
34742;BME280;20968;42.696;23.360;2023-04-20T12:11:26;94858.59;;;16.71;50.51
34742;BME280;20968;42.696;23.360;2023-04-20T12:13:51;94843.00;;;16.44;50.51
34742;BME280;20968;42.696;23.360;2023-04-20T12:16:18;94850.88;;;16.16;51.39
34742;BME280;20968;42.696;23.360;2023-04-20T12:18:45;94847.25;;;16.03;51.14
34742;BME280;20968;42.696;23.360;2023-04-20T12:21:13;94850.44;;;15.88;51.49
34742;BME280;20968;42.696;23.360;2023-04-20T12:23:38;94849.44;;;15.62;53.18
34742;BME280;20968;42.696;23.360;2023-04-20T12:26:04;94851.16;;;15.65;54.82
34742;BME280;20968;42.696;23.360;2023-04-20T12:28:31;94852.00;;;15.55;54.41
34742;BME280;20968;42.696;23.360;2023-04-20T12:30:57;94839.97;;;15.47;53.63
34742;BME280;20968;42.696;23.360;2023-04-20T12:33:23;94839.81;;;15.39;52.97
34742;BME280;20968;42.696;23.360;2023-04-20T12:35:48;94845.41;;;15.34;53.01
34742;BME280;20968;42.696;23.360;2023-04-20T12:38:14;94846.28;;;15.47;53.55
34742;BME280;20968;42.696;23.360;2023-04-20T12:40:40;94843.66;;;15.60;53.40
34742;BME280;20968;42.696;23.360;2023-04-20T12:43:05;94838.69;;;15.77;53.52
34742;BME280;20968;42.696;23.360;2023-04-20T12:45:30;94839.91;;;15.81;53.40
34742;BME280;20968;42.696;23.360;2023-04-20T12:47:56;94823.88;;;15.93;53.24
34742;BME280;20968;42.696;23.360;2023-04-20T12:50:23;94840.13;;;16.07;53.32
34742;BME280;20968;42.696;23.360;2023-04-20T12:52:49;94843.66;;;16.08;52.75
34742;BME280;20968;42.696;23.360;2023-04-20T12:55:16;94832.66;;;16.21;51.75
34742;BME280;20968;42.696;23.360;2023-04-20T12:57:43;94834.28;;;16.35;50.70
34742;BME280;20968;42.696;23.360;2023-04-20T13:00:09;94847.50;;;16.47;50.61
34742;BME280;20968;42.696;23.360;2023-04-20T13:02:36;94835.00;;;16.59;50.50
34742;BME280;20968;42.696;23.360;2023-04-20T13:05:01;94840.31;;;16.57;51.59